Time;durP1;ratioP1;P1;durP2;ratioP2;P2;SDS_P1;SDS_P2;PMS_P1;PMS_P2;Temp;Humidity;BMP_temperature;BMP_pressure;BME280_temperature;BME280_humidity;BME280_pressure;Samples;Min_cycle;Max_cycle;Signal;HPM_P1;HPM_P2
2021/05/15 00:02:16;;;;;;;14.85;13.73;;;;;;;;;;5012821;28;20270;-45
2021/05/15 00:04:41;;;;;;;14.73;13.47;;;;;;;;;;5013543;28;20854;-45
2021/05/15 00:07:06;;;;;;;13.32;12.32;;;;;;;;;;5014021;28;20543;-46
2021/05/15 00:09:31;;;;;;;14.53;13.43;;;;;;;;;;5013759;28;20594;-46
2021/05/15 00:11:57;;;;;;;14.10;13.00;;;;;;;;;;5013174;28;20194;-45
2021/05/15 00:14:22;;;;;;;14.57;13.47;;;;;;;;;;5013127;28;20174;-45
2021/05/15 00:16:47;;;;;;;14.13;13.00;;;;;;;;;;5011115;28;20627;-45
2021/05/15 00:19:12;;;;;;;13.30;12.30;;;;;;;;;;5011292;28;20180;-45
2021/05/15 00:21:37;;;;;;;12.80;11.80;;;;;;;;;;5012719;28;20670;-45
2021/05/15 00:24:03;;;;;;;14.25;13.15;;;;;;;;;;5013242;28;20545;-45
2021/05/15 00:26:28;;;;;;;13.80;12.70;;;;;;;;;;5012475;28;20175;-45
2021/05/15 00:28:53;;;;;;;14.07;12.97;;;;;;;;;;5011374;28;20184;-45
2021/05/15 00:31:19;;;;;;;13.70;12.60;;;;;;;;;;5010237;28;20195;-45
2021/05/15 00:33:44;;;;;;;14.00;12.90;;;;;;;;;;5009983;28;20195;-45
2021/05/15 00:36:09;;;;;;;15.45;14.13;;;;;;;;;;5009847;28;20223;-45
2021/05/15 00:38:34;;;;;;;14.13;12.98;;;;;;;;;;5010329;28;20173;-44
2021/05/15 00:41:00;;;;;;;14.03;12.97;;;;;;;;;;5009328;28;20294;-44
2021/05/15 00:43:27;;;;;;;15.17;13.97;;;;;;;;;;5010224;28;20177;-46
2021/05/15 00:45:52;;;;;;;15.33;13.93;;;;;;;;;;4996026;28;20278;-46
2021/05/15 00:48:17;;;;;;;14.47;13.27;;;;;;;;;;5008338;28;20676;-46
2021/05/15 00:50:42;;;;;;;13.43;12.43;;;;;;;;;;5008737;28;20185;-46
2021/05/15 00:53:08;;;;;;;14.35;13.25;;;;;;;;;;5008452;28;20179;-46
2021/05/15 00:55:35;;;;;;;15.07;13.77;;;;;;;;;;5009113;28;20201;-46
2021/05/15 00:58:01;;;;;;;14.80;13.60;;;;;;;;;;5009070;28;20196;-46
2021/05/15 01:00:26;;;;;;;14.93;13.73;;;;;;;;;;5008183;28;21318;-46
2021/05/15 01:02:51;;;;;;;14.80;13.60;;;;;;;;;;5007491;28;20598;-45
2021/05/15 01:05:17;;;;;;;14.87;13.67;;;;;;;;;;5008832;28;20175;-46
2021/05/15 01:07:43;;;;;;;14.27;13.17;;;;;;;;;;5008885;28;20724;-45
2021/05/15 01:10:08;;;;;;;14.60;13.40;;;;;;;;;;5006606;28;20579;-46
2021/05/15 01:12:42;;;;;;;15.13;13.93;;;;;;;;;;5009437;28;21304;-45
2021/05/15 01:15:08;;;;;;;14.33;13.17;;;;;;;;;;5009233;28;20230;-46
2021/05/15 01:17:33;;;;;;;14.50;13.30;;;;;;;;;;5000973;28;20630;-46
2021/05/15 01:19:58;;;;;;;14.75;13.55;;;;;;;;;;5007560;28;20198;-46
2021/05/15 01:22:23;;;;;;;15.15;13.85;;;;;;;;;;5009060;28;20262;-46
2021/05/15 01:24:48;;;;;;;14.77;13.57;;;;;;;;;;5008871;28;20188;-46
2021/05/15 01:27:14;;;;;;;14.68;13.45;;;;;;;;;;5009085;28;20887;-44
2021/05/15 01:29:40;;;;;;;15.20;13.83;;;;;;;;;;5009151;28;20165;-44
2021/05/15 01:32:05;;;;;;;15.20;13.90;;;;;;;;;;5008632;28;20258;-44
2021/05/15 01:34:30;;;;;;;16.00;14.70;;;;;;;;;;5008776;28;20604;-46
2021/05/15 01:36:56;;;;;;;15.93;14.63;;;;;;;;;;5008651;28;20339;-44
2021/05/15 01:39:21;;;;;;;15.33;14.00;;;;;;;;;;5008993;28;20182;-44
2021/05/15 01:41:47;;;;;;;15.67;14.27;;;;;;;;;;5007807;28;20189;-45
2021/05/15 01:44:12;;;;;;;16.20;14.80;;;;;;;;;;5008392;28;20183;-44
2021/05/15 01:46:38;;;;;;;17.70;16.20;;;;;;;;;;5008583;28;20187;-45
2021/05/15 01:49:03;;;;;;;16.20;14.73;;;;;;;;;;5009432;28;20225;-45
2021/05/15 01:51:28;;;;;;;17.10;15.30;;;;;;;;;;5008709;28;20227;-45
2021/05/15 01:53:54;;;;;;;17.63;16.13;;;;;;;;;;5008479;28;20192;-45
2021/05/15 01:56:23;;;;;;;16.63;15.10;;;;;;;;;;5008897;28;20348;-45
2021/05/15 01:58:49;;;;;;;15.83;14.43;;;;;;;;;;5001674;28;20535;-45
2021/05/15 02:01:14;;;;;;;17.03;15.43;;;;;;;;;;5006394;28;20606;-45
2021/05/15 02:03:40;;;;;;;18.77;17.07;;;;;;;;;;5008318;28;20259;-45
2021/05/15 02:06:06;;;;;;;16.60;15.10;;;;;;;;;;5008397;28;20203;-45
2021/05/15 02:08:31;;;;;;;16.60;15.20;;;;;;;;;;5008804;28;20961;-45
2021/05/15 02:10:57;;;;;;;17.70;16.10;;;;;;;;;;5005321;28;20229;-45
2021/05/15 02:13:25;;;;;;;17.50;15.80;;;;;;;;;;5008636;28;20188;-45
2021/05/15 02:15:50;;;;;;;16.67;15.20;;;;;;;;;;5008584;28;20203;-44
2021/05/15 02:18:15;;;;;;;17.67;16.07;;;;;;;;;;5008307;28;20604;-45
2021/05/15 02:20:41;;;;;;;16.73;15.23;;;;;;;;;;5008486;28;20299;-45
2021/05/15 02:23:07;;;;;;;19.63;17.70;;;;;;;;;;5008483;28;20192;-45
2021/05/15 02:25:32;;;;;;;17.63;15.93;;;;;;;;;;5008118;28;20596;-45
2021/05/15 02:27:57;;;;;;;16.43;15.03;;;;;;;;;;5007784;28;20185;-46
2021/05/15 02:30:23;;;;;;;17.83;16.23;;;;;;;;;;5008753;28;20288;-46
2021/05/15 02:32:48;;;;;;;16.83;15.23;;;;;;;;;;5008359;28;20182;-46
2021/05/15 02:35:14;;;;;;;17.52;15.82;;;;;;;;;;5008009;28;20643;-46
2021/05/15 02:37:40;;;;;;;16.87;15.27;;;;;;;;;;5008453;28;20188;-45
2021/05/15 02:40:06;;;;;;;15.30;13.90;;;;;;;;;;5008353;28;20178;-44
2021/05/15 02:42:31;;;;;;;15.37;13.87;;;;;;;;;;5008392;28;20170;-45
2021/05/15 02:44:56;;;;;;;15.80;14.40;;;;;;;;;;5007861;28;21249;-44
2021/05/15 02:47:22;;;;;;;16.38;14.88;;;;;;;;;;5008360;28;20649;-44
2021/05/15 02:49:48;;;;;;;17.13;15.43;;;;;;;;;;5008394;28;20283;-45
2021/05/15 02:52:13;;;;;;;17.13;15.63;;;;;;;;;;5007008;28;20241;-45
2021/05/15 02:54:38;;;;;;;16.90;15.40;;;;;;;;;;5007344;28;20688;-45
2021/05/15 02:57:04;;;;;;;17.10;15.40;;;;;;;;;;5007963;28;20169;-45
2021/05/15 02:59:29;;;;;;;19.73;17.70;;;;;;;;;;5008057;28;20183;-45
2021/05/15 03:01:54;;;;;;;17.42;15.82;;;;;;;;;;5007674;28;20328;-45
2021/05/15 03:04:19;;;;;;;16.30;14.90;;;;;;;;;;5008054;28;20219;-45
2021/05/15 03:06:44;;;;;;;17.10;15.53;;;;;;;;;;5007559;28;20869;-45
2021/05/15 03:09:09;;;;;;;17.38;15.68;;;;;;;;;;5007245;28;20176;-46
2021/05/15 03:11:34;;;;;;;15.52;14.07;;;;;;;;;;5007795;28;20236;-45
2021/05/15 03:14:00;;;;;;;17.03;15.43;;;;;;;;;;5003963;28;20624;-46
2021/05/15 03:16:25;;;;;;;17.07;15.47;;;;;;;;;;5007448;28;20216;-47
2021/05/15 03:18:50;;;;;;;17.30;15.70;;;;;;;;;;5007018;28;20568;-46
2021/05/15 03:21:15;;;;;;;16.77;15.18;;;;;;;;;;5007321;28;20250;-45
2021/05/15 03:23:40;;;;;;;16.95;15.45;;;;;;;;;;5007544;28;20685;-46
2021/05/15 03:26:05;;;;;;;16.40;14.97;;;;;;;;;;5007935;28;20174;-45
2021/05/15 03:28:30;;;;;;;19.83;17.70;;;;;;;;;;5007741;28;20211;-45
2021/05/15 03:30:56;;;;;;;19.73;17.83;;;;;;;;;;5007250;28;20188;-46
2021/05/15 03:33:21;;;;;;;17.13;15.55;;;;;;;;;;5007742;28;20180;-46
2021/05/15 03:35:46;;;;;;;16.53;15.07;;;;;;;;;;5007271;28;20200;-45
2021/05/15 03:38:11;;;;;;;18.45;16.75;;;;;;;;;;5007146;28;20244;-45
2021/05/15 03:40:37;;;;;;;16.13;14.73;;;;;;;;;;5007749;28;20184;-46
2021/05/15 03:43:03;;;;;;;17.70;16.00;;;;;;;;;;5007691;28;20203;-44
2021/05/15 03:45:28;;;;;;;16.00;14.60;;;;;;;;;;5007442;28;20282;-45
2021/05/15 03:47:53;;;;;;;18.50;16.77;;;;;;;;;;5007798;28;20588;-45
2021/05/15 03:50:21;;;;;;;17.10;15.60;;;;;;;;;;5007405;28;20196;-44
2021/05/15 03:52:47;;;;;;;19.30;17.40;;;;;;;;;;5006994;28;20748;-43
2021/05/15 03:55:12;;;;;;;17.67;16.08;;;;;;;;;;5007295;28;20629;-44
2021/05/15 03:57:37;;;;;;;17.23;15.63;;;;;;;;;;5005542;28;20193;-44
2021/05/15 04:00:03;;;;;;;18.00;16.40;;;;;;;;;;4992936;28;20235;-44
2021/05/15 04:02:28;;;;;;;17.63;16.03;;;;;;;;;;5004599;28;20791;-44
2021/05/15 04:04:53;;;;;;;17.97;16.37;;;;;;;;;;5009316;28;20172;-44
2021/05/15 04:07:18;;;;;;;18.10;16.47;;;;;;;;;;5010305;28;20236;-52
2021/05/15 04:09:44;;;;;;;16.43;15.00;;;;;;;;;;5010805;28;20530;-44
2021/05/15 04:12:10;;;;;;;15.40;14.10;;;;;;;;;;5010059;28;20196;-44
2021/05/15 04:14:44;;;;;;;16.10;14.67;;;;;;;;;;5011318;28;20177;-44
2021/05/15 04:19:35;;;;;;;14.13;12.93;;;;;;;;;;5010336;28;20683;-45
2021/05/15 04:22:01;;;;;;;13.17;12.17;;;;;;;;;;5010983;28;20181;-45
2021/05/15 04:24:26;;;;;;;12.93;11.63;;;;;;;;;;5010252;28;20652;-45
2021/05/15 04:26:58;;;;;;;13.07;11.90;;;;;;;;;;5011062;28;20637;-45
2021/05/15 04:29:24;;;;;;;12.77;11.77;;;;;;;;;;5010307;28;20178;-45
2021/05/15 04:31:49;;;;;;;13.20;12.10;;;;;;;;;;5010544;28;20575;-45
2021/05/15 04:34:15;;;;;;;13.33;12.30;;;;;;;;;;5010133;28;20199;-44
2021/05/15 04:36:40;;;;;;;12.10;11.13;;;;;;;;;;5010378;28;20694;-44
2021/05/15 04:39:05;;;;;;;11.50;10.60;;;;;;;;;;5010141;28;20175;-45
2021/05/15 04:41:30;;;;;;;12.10;11.20;;;;;;;;;;5010219;28;20175;-45
2021/05/15 04:43:55;;;;;;;12.57;11.57;;;;;;;;;;5010488;28;20182;-45
2021/05/15 04:46:21;;;;;;;10.65;9.85;;;;;;;;;;5010225;28;20182;-46
2021/05/15 04:48:46;;;;;;;10.48;9.68;;;;;;;;;;5010235;28;20227;-46
2021/05/15 04:51:11;;;;;;;10.27;9.47;;;;;;;;;;5009748;28;20177;-45
2021/05/15 04:53:36;;;;;;;9.93;9.23;;;;;;;;;;5009852;28;20646;-45
2021/05/15 04:56:02;;;;;;;9.47;8.77;;;;;;;;;;5010007;28;20254;-47
2021/05/15 04:58:27;;;;;;;8.90;8.20;;;;;;;;;;5009417;28;20192;-45
2021/05/15 05:00:52;;;;;;;9.73;9.03;;;;;;;;;;5009861;28;20173;-46
2021/05/15 05:03:17;;;;;;;9.50;8.80;;;;;;;;;;5009536;28;20183;-47
2021/05/15 05:05:42;;;;;;;8.30;7.70;;;;;;;;;;5010089;28;20253;-44
2021/05/15 05:08:08;;;;;;;8.90;8.10;;;;;;;;;;5010407;28;20207;-44
2021/05/15 05:10:33;;;;;;;9.67;8.83;;;;;;;;;;5007605;28;20560;-45
2021/05/15 05:13:01;;;;;;;8.50;7.90;;;;;;;;;;5009862;28;20604;-46
2021/05/15 05:15:26;;;;;;;8.63;8.03;;;;;;;;;;5009205;28;20211;-46
2021/05/15 05:17:52;;;;;;;8.48;7.97;;;;;;;;;;5010301;28;20576;-45
2021/05/15 05:20:17;;;;;;;8.50;7.90;;;;;;;;;;5009694;28;20187;-46
2021/05/15 05:22:42;;;;;;;8.93;8.33;;;;;;;;;;5023448;28;20538;-45
2021/05/15 05:25:11;;;;;;;9.77;9.03;;;;;;;;;;5018418;28;20203;-45
2021/05/15 05:27:36;;;;;;;8.23;7.73;;;;;;;;;;5021009;28;20179;-45
2021/05/15 05:30:01;;;;;;;8.60;8.00;;;;;;;;;;5021895;28;20946;-44
2021/05/15 05:32:26;;;;;;;9.13;8.43;;;;;;;;;;5028882;28;20528;-44
2021/05/15 05:34:52;;;;;;;8.47;7.87;;;;;;;;;;5028051;28;20177;-45
2021/05/15 05:37:17;;;;;;;8.13;7.53;;;;;;;;;;5011507;28;20230;-46
2021/05/15 05:39:42;;;;;;;7.70;7.20;;;;;;;;;;5009407;28;20263;-47
2021/05/15 05:42:07;;;;;;;11.90;7.80;;;;;;;;;;5022396;28;20183;-46
2021/05/15 05:44:32;;;;;;;8.00;7.43;;;;;;;;;;5029124;28;20539;-47
2021/05/15 05:46:58;;;;;;;8.50;7.70;;;;;;;;;;5029111;28;20674;-46
2021/05/15 05:49:23;;;;;;;7.57;7.07;;;;;;;;;;5028447;28;20717;-45
2021/05/15 05:51:48;;;;;;;8.10;7.50;;;;;;;;;;5017121;28;20235;-45
2021/05/15 05:54:13;;;;;;;7.57;6.77;;;;;;;;;;5029016;28;20178;-46
2021/05/15 05:56:38;;;;;;;7.10;6.60;;;;;;;;;;5028868;28;20562;-45
2021/05/15 05:59:03;;;;;;;7.97;7.40;;;;;;;;;;5004331;28;20312;-46
2021/05/15 06:01:29;;;;;;;7.90;7.30;;;;;;;;;;4995948;28;20377;-46
2021/05/15 06:03:54;;;;;;;7.27;6.80;;;;;;;;;;5001813;28;21862;-45
2021/05/15 06:06:19;;;;;;;8.95;8.25;;;;;;;;;;5007787;28;20177;-45
2021/05/15 06:08:44;;;;;;;8.37;7.70;;;;;;;;;;5007890;28;20674;-46
2021/05/15 06:11:09;;;;;;;7.70;7.20;;;;;;;;;;5006288;28;20225;-46
2021/05/15 06:13:35;;;;;;;7.72;7.13;;;;;;;;;;5008473;28;20176;-45
2021/05/15 06:16:00;;;;;;;7.73;7.13;;;;;;;;;;5008515;28;20208;-45
2021/05/15 06:18:25;;;;;;;7.60;7.10;;;;;;;;;;5007774;28;20176;-45
2021/05/15 06:20:51;;;;;;;8.60;7.90;;;;;;;;;;5008924;28;20175;-46
2021/05/15 06:23:16;;;;;;;6.90;6.40;;;;;;;;;;5008261;28;20242;-44
2021/05/15 06:25:41;;;;;;;7.50;6.90;;;;;;;;;;5008239;28;20177;-45
2021/05/15 06:28:06;;;;;;;6.83;6.40;;;;;;;;;;5007889;28;20261;-45
2021/05/15 06:30:32;;;;;;;7.10;6.60;;;;;;;;;;5008200;28;20188;-45
2021/05/15 06:32:57;;;;;;;6.60;6.13;;;;;;;;;;5008184;28;20743;-45
2021/05/15 06:35:22;;;;;;;6.70;6.20;;;;;;;;;;5007436;28;20288;-45
2021/05/15 06:37:47;;;;;;;6.37;5.90;;;;;;;;;;5006276;28;20187;-46
2021/05/15 06:40:13;;;;;;;7.00;6.50;;;;;;;;;;5007635;28;20223;-45
2021/05/15 06:42:38;;;;;;;7.00;6.50;;;;;;;;;;5002901;28;20197;-46
2021/05/15 06:45:04;;;;;;;7.35;6.85;;;;;;;;;;5005882;28;20314;-45
2021/05/15 06:47:29;;;;;;;6.57;6.07;;;;;;;;;;5005520;28;20185;-45
2021/05/15 06:49:54;;;;;;;6.53;6.03;;;;;;;;;;5004077;28;21177;-46
2021/05/15 06:52:19;;;;;;;6.50;6.00;;;;;;;;;;5004817;28;20219;-46
2021/05/15 06:54:45;;;;;;;6.07;5.67;;;;;;;;;;5004631;28;20248;-47
2021/05/15 06:57:10;;;;;;;5.80;5.40;;;;;;;;;;5003914;28;20555;-46
2021/05/15 06:59:35;;;;;;;5.97;5.57;;;;;;;;;;5004383;28;20264;-46
2021/05/15 07:02:01;;;;;;;5.78;5.38;;;;;;;;;;5002447;28;20708;-46
2021/05/15 07:04:26;;;;;;;5.53;5.03;;;;;;;;;;5003851;28;20186;-47
2021/05/15 07:06:52;;;;;;;4.90;4.60;;;;;;;;;;5004259;28;20188;-45
2021/05/15 07:09:17;;;;;;;5.27;4.83;;;;;;;;;;5004304;28;20188;-48
2021/05/15 07:11:42;;;;;;;4.80;4.40;;;;;;;;;;5003025;28;20885;-44
2021/05/15 07:14:08;;;;;;;4.47;4.17;;;;;;;;;;5004284;28;20418;-44
2021/05/15 07:16:33;;;;;;;3.70;3.40;;;;;;;;;;5004180;28;20199;-44
2021/05/15 07:18:58;;;;;;;3.07;2.87;;;;;;;;;;5002745;28;20232;-45
2021/05/15 07:21:23;;;;;;;2.17;2.08;;;;;;;;;;5004361;28;20664;-45
2021/05/15 07:23:48;;;;;;;2.97;2.77;;;;;;;;;;5004115;28;20177;-45
2021/05/15 07:26:13;;;;;;;1.90;1.80;;;;;;;;;;5004158;28;20172;-45
2021/05/15 07:28:39;;;;;;;2.00;1.90;;;;;;;;;;5005169;28;20629;-45
2021/05/15 07:31:04;;;;;;;1.60;1.50;;;;;;;;;;5003301;28;20192;-45
2021/05/15 07:33:29;;;;;;;2.23;1.70;;;;;;;;;;5000514;28;20186;-46
2021/05/15 07:35:55;;;;;;;1.40;1.30;;;;;;;;;;5006555;28;20214;-45
2021/05/15 07:38:22;;;;;;;1.30;1.30;;;;;;;;;;5006353;28;20267;-45
2021/05/15 07:40:50;;;;;;;1.23;1.23;;;;;;;;;;5010908;28;20183;-44
2021/05/15 07:43:22;;;;;;;1.20;1.20;;;;;;;;;;5010809;28;20590;-44
2021/05/15 07:45:47;;;;;;;1.47;1.40;;;;;;;;;;5010786;28;20625;-46
2021/05/15 07:48:12;;;;;;;1.42;1.27;;;;;;;;;;5010428;28;20678;-46
2021/05/15 07:50:37;;;;;;;1.38;1.30;;;;;;;;;;5010426;28;20178;-45
2021/05/15 07:53:02;;;;;;;1.10;1.10;;;;;;;;;;5010566;28;20605;-45
2021/05/15 07:55:28;;;;;;;1.90;1.53;;;;;;;;;;5010216;28;20194;-45
2021/05/15 07:57:53;;;;;;;1.27;1.17;;;;;;;;;;5010618;28;20179;-45
2021/05/15 08:00:18;;;;;;;0.90;0.90;;;;;;;;;;5010557;28;20289;-46
2021/05/15 08:02:43;;;;;;;1.80;1.20;;;;;;;;;;5009973;28;20169;-46
2021/05/15 08:05:10;;;;;;;1.10;1.00;;;;;;;;;;5010394;28;20183;-46
2021/05/15 08:07:35;;;;;;;1.93;1.27;;;;;;;;;;5010560;28;20253;-46
2021/05/15 08:10:00;;;;;;;1.43;1.33;;;;;;;;;;5010049;28;20631;-46
2021/05/15 08:12:25;;;;;;;1.13;1.07;;;;;;;;;;5010326;28;20251;-46
2021/05/15 08:14:51;;;;;;;1.23;1.13;;;;;;;;;;5010207;28;20656;-45
2021/05/15 08:17:16;;;;;;;2.50;1.20;;;;;;;;;;5010547;28;20665;-46
2021/05/15 08:19:41;;;;;;;2.05;1.00;;;;;;;;;;5010183;28;20168;-47
2021/05/15 08:22:06;;;;;;;1.67;1.30;;;;;;;;;;5010555;28;20173;-47
2021/05/15 08:24:34;;;;;;;1.03;1.00;;;;;;;;;;5010142;28;20177;-45
2021/05/15 08:26:59;;;;;;;1.17;1.07;;;;;;;;;;5010322;28;20650;-46
2021/05/15 08:29:24;;;;;;;1.80;1.20;;;;;;;;;;5006429;28;20628;-45
2021/05/15 08:31:50;;;;;;;0.80;0.80;;;;;;;;;;5004451;28;20177;-46
2021/05/15 08:34:15;;;;;;;0.90;0.90;;;;;;;;;;5010054;28;20180;-45
2021/05/15 08:36:41;;;;;;;1.20;1.10;;;;;;;;;;5009574;28;20205;-46
2021/05/15 08:39:06;;;;;;;1.40;1.03;;;;;;;;;;5009700;28;20173;-46
2021/05/15 08:41:32;;;;;;;1.03;0.80;;;;;;;;;;5009625;28;20179;-47
2021/05/15 08:43:58;;;;;;;1.47;1.10;;;;;;;;;;5009611;28;20177;-47
2021/05/15 08:46:24;;;;;;;0.90;0.90;;;;;;;;;;5009248;28;20185;-46
2021/05/15 08:48:49;;;;;;;0.90;0.90;;;;;;;;;;5009858;28;20581;-46
2021/05/15 08:51:15;;;;;;;1.00;0.90;;;;;;;;;;5008683;28;20189;-47
2021/05/15 08:53:40;;;;;;;1.13;0.97;;;;;;;;;;5008828;28;20343;-46
2021/05/15 08:56:12;;;;;;;1.33;0.90;;;;;;;;;;5009443;28;20829;-47
2021/05/15 08:58:38;;;;;;;1.53;1.10;;;;;;;;;;5009220;28;20180;-45
2021/05/15 09:01:03;;;;;;;1.60;1.20;;;;;;;;;;5009294;28;20726;-46
2021/05/15 09:03:29;;;;;;;1.33;1.10;;;;;;;;;;5005408;28;20174;-45
2021/05/15 09:05:54;;;;;;;0.80;0.80;;;;;;;;;;5007246;28;20193;-45
2021/05/15 09:08:19;;;;;;;1.67;1.25;;;;;;;;;;5009455;28;20173;-46
2021/05/15 09:10:47;;;;;;;1.10;1.00;;;;;;;;;;5008787;28;20260;-48
2021/05/15 09:13:23;;;;;;;1.47;1.00;;;;;;;;;;5009206;28;20538;-46
2021/05/15 09:15:48;;;;;;;1.13;1.13;;;;;;;;;;5009454;28;21071;-46
2021/05/15 09:18:15;;;;;;;1.07;1.07;;;;;;;;;;5009339;28;20677;-48
2021/05/15 09:20:40;;;;;;;1.07;1.07;;;;;;;;;;5009184;28;20385;-46
2021/05/15 09:23:17;;;;;;;0.90;0.90;;;;;;;;;;5009234;28;20677;-47
2021/05/15 09:25:43;;;;;;;1.00;1.00;;;;;;;;;;5008739;28;20186;-47
2021/05/15 09:28:09;;;;;;;1.00;1.00;;;;;;;;;;5008861;28;20582;-46
2021/05/15 09:30:34;;;;;;;1.73;0.90;;;;;;;;;;5009296;28;20648;-46
2021/05/15 09:33:10;;;;;;;1.60;1.23;;;;;;;;;;5008809;28;20179;-46
2021/05/15 09:35:35;;;;;;;1.20;1.10;;;;;;;;;;5008489;28;20197;-46
2021/05/15 09:38:00;;;;;;;1.17;0.90;;;;;;;;;;5009059;28;20603;-48
2021/05/15 09:40:27;;;;;;;1.30;1.20;;;;;;;;;;5008593;28;20267;-46
2021/05/15 09:42:54;;;;;;;1.53;1.43;;;;;;;;;;5009012;28;20201;-46
2021/05/15 09:45:26;;;;;;;1.90;1.30;;;;;;;;;;5008738;28;20654;-46
2021/05/15 09:48:02;;;;;;;2.10;1.23;;;;;;;;;;5008497;28;20646;-46
2021/05/15 09:50:29;;;;;;;1.13;1.03;;;;;;;;;;5008847;28;20579;-45
2021/05/15 09:53:04;;;;;;;1.40;1.20;;;;;;;;;;5008650;28;20572;-45
2021/05/15 09:55:29;;;;;;;1.27;1.10;;;;;;;;;;5008923;28;20625;-45
2021/05/15 09:57:55;;;;;;;1.50;1.40;;;;;;;;;;5008419;28;20666;-45
2021/05/15 10:00:21;;;;;;;1.43;1.33;;;;;;;;;;5008483;28;20547;-45
2021/05/15 10:02:53;;;;;;;1.67;1.57;;;;;;;;;;5007615;28;20257;-46
2021/05/15 10:05:19;;;;;;;1.53;1.43;;;;;;;;;;5008236;28;20212;-47
2021/05/15 10:07:44;;;;;;;1.30;1.30;;;;;;;;;;5008183;28;20609;-45
2021/05/15 10:10:09;;;;;;;1.50;1.40;;;;;;;;;;5008270;28;20255;-46
2021/05/15 10:12:36;;;;;;;1.50;1.50;;;;;;;;;;5008217;28;20178;-45
2021/05/15 10:15:02;;;;;;;1.90;1.40;;;;;;;;;;5007938;28;20639;-44
2021/05/15 10:17:27;;;;;;;1.50;1.40;;;;;;;;;;5008170;28;20587;-44
2021/05/15 10:19:53;;;;;;;1.30;1.30;;;;;;;;;;5007944;28;20591;-45
2021/05/15 10:22:18;;;;;;;1.63;1.53;;;;;;;;;;5008414;28;20178;-45
2021/05/15 10:24:46;;;;;;;3.90;1.60;;;;;;;;;;5007758;28;20596;-44
2021/05/15 10:27:12;;;;;;;1.70;1.60;;;;;;;;;;5008202;28;20173;-45
2021/05/15 10:29:46;;;;;;;1.63;1.40;;;;;;;;;;5008037;28;21456;-45
2021/05/15 10:32:14;;;;;;;1.50;1.40;;;;;;;;;;5007821;28;20675;-44
2021/05/15 10:34:39;;;;;;;1.57;1.10;;;;;;;;;;5007540;28;20720;-45
2021/05/15 10:37:13;;;;;;;1.27;1.20;;;;;;;;;;5007668;28;20642;-45
2021/05/15 10:39:39;;;;;;;1.30;1.20;;;;;;;;;;5007873;28;20703;-45
2021/05/15 10:42:04;;;;;;;1.40;1.30;;;;;;;;;;5007838;28;21177;-46
2021/05/15 10:44:42;;;;;;;1.53;1.43;;;;;;;;;;5008024;28;20186;-46
2021/05/15 10:47:07;;;;;;;1.40;1.30;;;;;;;;;;5007466;28;20538;-46
2021/05/15 10:49:32;;;;;;;1.53;1.40;;;;;;;;;;5008100;28;20592;-45
2021/05/15 10:52:09;;;;;;;1.60;1.50;;;;;;;;;;5007591;28;20173;-45
2021/05/15 10:54:35;;;;;;;1.70;1.60;;;;;;;;;;5007497;28;20230;-45
2021/05/15 10:57:02;;;;;;;1.47;1.37;;;;;;;;;;5007885;28;20855;-46
2021/05/15 10:59:27;;;;;;;1.30;1.23;;;;;;;;;;5007656;28;20569;-46
2021/05/15 11:01:54;;;;;;;1.53;1.43;;;;;;;;;;5007083;28;20978;-45
2021/05/15 11:04:29;;;;;;;1.50;1.40;;;;;;;;;;5000393;28;20207;-46
2021/05/15 11:07:01;;;;;;;1.40;1.33;;;;;;;;;;5005109;28;20636;-47
2021/05/15 11:09:26;;;;;;;1.70;1.60;;;;;;;;;;5006905;28;20580;-46
2021/05/15 11:11:52;;;;;;;1.87;1.77;;;;;;;;;;5006901;28;20685;-45
2021/05/15 11:14:34;;;;;;;1.67;1.50;;;;;;;;;;5007223;28;20611;-45
2021/05/15 11:17:06;;;;;;;1.63;1.33;;;;;;;;;;5007223;28;20733;-46
2021/05/15 11:19:32;;;;;;;1.57;1.47;;;;;;;;;;5010506;28;20600;-46
2021/05/15 11:21:57;;;;;;;2.67;1.50;;;;;;;;;;5019290;28;20610;-45
2021/05/15 11:24:32;;;;;;;1.60;1.50;;;;;;;;;;5025870;28;20173;-45
2021/05/15 11:27:08;;;;;;;1.13;1.10;;;;;;;;;;5022007;28;20193;-45
2021/05/15 11:29:34;;;;;;;2.20;1.20;;;;;;;;;;5004432;28;20604;-46
2021/05/15 11:32:12;;;;;;;1.30;1.20;;;;;;;;;;5019486;28;21173;-48
2021/05/15 11:34:38;;;;;;;1.20;1.10;;;;;;;;;;5014003;28;20169;-45
2021/05/15 11:37:06;;;;;;;1.30;1.10;;;;;;;;;;5011814;28;20744;-46
2021/05/15 11:39:32;;;;;;;1.50;1.40;;;;;;;;;;5011275;28;20169;-46
2021/05/15 11:42:08;;;;;;;3.90;1.30;;;;;;;;;;5007004;28;20607;-46
2021/05/15 11:44:33;;;;;;;1.27;1.17;;;;;;;;;;5009964;28;20178;-46
2021/05/15 11:47:00;;;;;;;1.47;1.37;;;;;;;;;;5020694;28;20607;-45
2021/05/15 11:49:25;;;;;;;1.43;1.10;;;;;;;;;;5017367;28;20188;-45
2021/05/15 11:52:00;;;;;;;1.10;1.00;;;;;;;;;;5005088;28;20607;-46
2021/05/15 11:54:25;;;;;;;1.13;1.13;;;;;;;;;;5004295;28;20183;-46
2021/05/15 11:56:51;;;;;;;1.43;1.33;;;;;;;;;;5001051;28;20657;-46
2021/05/15 11:59:17;;;;;;;1.30;1.20;;;;;;;;;;4987065;28;20181;-47
2021/05/15 12:01:43;;;;;;;1.07;1.00;;;;;;;;;;5000209;28;20975;-46
2021/05/15 12:04:13;;;;;;;1.77;1.38;;;;;;;;;;4990615;28;20611;-46
2021/05/15 12:06:39;;;;;;;1.60;1.20;;;;;;;;;;4988851;28;20651;-46
2021/05/15 12:09:13;;;;;;;1.00;1.00;;;;;;;;;;4997722;28;20674;-46
2021/05/15 12:11:39;;;;;;;1.33;1.23;;;;;;;;;;4997391;28;20240;-46
2021/05/15 12:14:04;;;;;;;1.03;1.03;;;;;;;;;;4996127;28;21017;-46
2021/05/15 12:16:32;;;;;;;1.30;1.20;;;;;;;;;;5009313;28;20568;-46
2021/05/15 12:18:58;;;;;;;1.30;1.20;;;;;;;;;;5022453;28;20171;-47
2021/05/15 12:21:24;;;;;;;1.27;1.17;;;;;;;;;;5011018;28;20603;-47
2021/05/15 12:23:49;;;;;;;1.40;1.30;;;;;;;;;;5014191;28;20213;-47
2021/05/15 12:26:16;;;;;;;1.30;1.20;;;;;;;;;;5010245;28;20643;-46
2021/05/15 12:28:42;;;;;;;1.30;1.20;;;;;;;;;;4999841;28;20255;-46
2021/05/15 12:31:19;;;;;;;1.27;1.20;;;;;;;;;;5010768;28;20614;-46
2021/05/15 12:33:44;;;;;;;0.90;0.90;;;;;;;;;;5014579;28;20604;-45
2021/05/15 12:36:09;;;;;;;1.00;1.00;;;;;;;;;;5026551;28;20699;-46
2021/05/15 12:38:47;;;;;;;1.20;1.20;;;;;;;;;;5014698;28;20295;-46
2021/05/15 12:41:23;;;;;;;0.90;0.90;;;;;;;;;;5012137;28;20701;-46
2021/05/15 12:44:00;;;;;;;0.83;0.73;;;;;;;;;;5008787;28;21575;-46
2021/05/15 12:46:25;;;;;;;1.37;0.80;;;;;;;;;;5017445;28;20699;-45
2021/05/15 12:48:55;;;;;;;0.70;0.70;;;;;;;;;;5008397;28;21263;-45
2021/05/15 12:51:26;;;;;;;2.60;1.67;;;;;;;;;;5007628;28;20177;-46
2021/05/15 12:53:52;;;;;;;1.40;1.10;;;;;;;;;;5011455;28;20603;-45
2021/05/15 12:56:27;;;;;;;1.50;1.40;;;;;;;;;;5026327;28;21448;-45
2021/05/15 12:58:52;;;;;;;0.90;0.90;;;;;;;;;;5006912;28;20185;-47
2021/05/15 13:01:17;;;;;;;1.00;0.90;;;;;;;;;;5007868;28;20588;-44
2021/05/15 13:03:47;;;;;;;1.70;1.20;;;;;;;;;;5006758;28;20567;-44
2021/05/15 13:06:17;;;;;;;2.07;1.97;;;;;;;;;;5009011;28;20943;-47
2021/05/15 13:08:42;;;;;;;1.50;1.40;;;;;;;;;;5012091;28;20679;-44
2021/05/15 13:11:15;;;;;;;1.10;1.10;;;;;;;;;;5012690;28;20762;-45
2021/05/15 13:13:43;;;;;;;1.00;1.00;;;;;;;;;;5010500;28;20185;-46
2021/05/15 13:16:09;;;;;;;1.27;1.00;;;;;;;;;;5006456;28;20756;-45
2021/05/15 13:18:35;;;;;;;0.80;0.80;;;;;;;;;;5015448;28;20596;-46
2021/05/15 13:21:00;;;;;;;1.20;1.20;;;;;;;;;;5010831;28;20598;-45
2021/05/15 13:23:25;;;;;;;0.90;0.90;;;;;;;;;;5017339;28;20196;-44
2021/05/15 13:25:50;;;;;;;0.90;0.90;;;;;;;;;;5009743;28;20722;-45
2021/05/15 13:28:16;;;;;;;1.63;1.50;;;;;;;;;;5007428;28;20662;-45
2021/05/15 13:30:43;;;;;;;0.93;0.93;;;;;;;;;;4993159;28;20269;-45
2021/05/15 13:33:08;;;;;;;1.00;1.00;;;;;;;;;;4989261;28;20311;-46
2021/05/15 13:35:34;;;;;;;1.03;1.03;;;;;;;;;;4989336;28;20703;-47
2021/05/15 13:37:59;;;;;;;1.27;1.27;;;;;;;;;;4988871;28;20178;-46
2021/05/15 13:40:24;;;;;;;1.40;1.30;;;;;;;;;;4989915;28;20256;-47
2021/05/15 13:42:49;;;;;;;1.67;1.17;;;;;;;;;;4989348;28;20641;-46
2021/05/15 13:45:15;;;;;;;1.10;1.10;;;;;;;;;;4989983;28;20661;-46
2021/05/15 13:47:40;;;;;;;1.00;1.00;;;;;;;;;;4989217;28;20166;-45
2021/05/15 13:50:06;;;;;;;1.17;1.17;;;;;;;;;;4989581;28;20200;-45
2021/05/15 13:52:31;;;;;;;0.90;0.90;;;;;;;;;;4989141;28;20587;-46
2021/05/15 13:54:56;;;;;;;1.13;1.13;;;;;;;;;;4996624;28;20181;-45
2021/05/15 13:57:21;;;;;;;1.17;1.10;;;;;;;;;;4987450;28;20302;-46
2021/05/15 13:59:47;;;;;;;2.37;1.53;;;;;;;;;;4988604;28;20183;-46
2021/05/15 14:02:12;;;;;;;1.00;1.00;;;;;;;;;;4988406;28;20177;-45
2021/05/15 14:04:37;;;;;;;1.10;1.08;;;;;;;;;;4988406;28;20537;-46
2021/05/15 14:07:03;;;;;;;1.40;1.30;;;;;;;;;;4988092;28;20972;-45
2021/05/15 14:09:29;;;;;;;1.20;1.17;;;;;;;;;;4988353;28;20189;-46
2021/05/15 14:11:54;;;;;;;1.50;1.40;;;;;;;;;;4988566;28;20613;-46
2021/05/15 14:14:19;;;;;;;1.20;1.02;;;;;;;;;;4988712;28;20651;-44
2021/05/15 14:16:44;;;;;;;1.67;1.20;;;;;;;;;;4988456;28;20206;-44
2021/05/15 14:19:09;;;;;;;1.00;1.00;;;;;;;;;;4988608;28;20175;-45
2021/05/15 14:21:35;;;;;;;1.30;1.20;;;;;;;;;;4988457;28;20166;-45
2021/05/15 14:24:00;;;;;;;1.27;1.27;;;;;;;;;;4988440;28;20176;-47
2021/05/15 14:26:25;;;;;;;0.80;0.80;;;;;;;;;;4990014;28;20259;-46
2021/05/15 14:28:50;;;;;;;1.97;1.10;;;;;;;;;;5008231;28;20225;-45
2021/05/15 14:31:15;;;;;;;1.40;1.03;;;;;;;;;;5008280;28;20261;-46